Time;durP1;ratioP1;P1;durP2;ratioP2;P2;SDS_P1;SDS_P2;PMS_P1;PMS_P2;Temp;Humidity;BMP_temperature;BMP_pressure;BME280_temperature;BME280_humidity;BME280_pressure;Samples;Min_cycle;Max_cycle;Signal;HPM_P1;HPM_P2
2022/04/23 00:00:20;;;;;;;11.30;2.38;;;;;;;;;;5128241;28;20130;-53
2022/04/23 00:02:45;;;;;;;4.07;1.55;;;;;;;;;;5128110;28;21363;-54
2022/04/23 00:05:10;;;;;;;7.43;1.95;;;;;;;;;;5127904;28;20414;-50
2022/04/23 00:07:36;;;;;;;5.03;1.40;;;;;;;;;;5127133;28;20517;-53
2022/04/23 00:10:01;;;;;;;11.25;2.20;;;;;;;;;;5127957;28;20061;-53
2022/04/23 00:12:27;;;;;;;7.82;2.60;;;;;;;;;;5128029;28;20064;-54
2022/04/23 00:14:53;;;;;;;9.18;2.40;;;;;;;;;;5127744;28;20043;-51
2022/04/23 00:17:19;;;;;;;5.57;2.17;;;;;;;;;;5124698;28;20051;-54
2022/04/23 00:19:46;;;;;;;7.63;2.53;;;;;;;;;;5127871;27;20055;-52
2022/04/23 00:22:12;;;;;;;15.13;2.55;;;;;;;;;;5127168;28;20058;-51
2022/04/23 00:24:37;;;;;;;5.28;2.58;;;;;;;;;;5127605;28;20051;-53
2022/04/23 00:27:03;;;;;;;5.82;1.80;;;;;;;;;;5128098;28;20047;-52
2022/04/23 00:29:29;;;;;;;3.85;2.10;;;;;;;;;;5127081;28;20050;-53
2022/04/23 00:31:55;;;;;;;12.50;2.60;;;;;;;;;;5127382;28;20787;-55
2022/04/23 00:34:20;;;;;;;3.53;1.13;;;;;;;;;;5127072;28;20070;-52
2022/04/23 00:36:46;;;;;;;8.13;2.50;;;;;;;;;;5127657;28;20066;-52
2022/04/23 00:39:11;;;;;;;1.70;0.85;;;;;;;;;;5127712;28;20046;-54
2022/04/23 00:41:46;;;;;;;9.85;3.40;;;;;;;;;;5127398;28;20043;-50
2022/04/23 00:44:12;;;;;;;9.63;3.03;;;;;;;;;;5125497;28;20051;-51
2022/04/23 00:46:38;;;;;;;6.13;2.00;;;;;;;;;;5126559;28;20387;-53
2022/04/23 00:49:05;;;;;;;14.82;2.03;;;;;;;;;;5126321;28;20584;-51
2022/04/23 00:51:31;;;;;;;4.75;2.30;;;;;;;;;;5125300;28;20039;-51
2022/04/23 00:53:57;;;;;;;11.32;3.00;;;;;;;;;;5125401;28;20043;-52
2022/04/23 00:56:22;;;;;;;10.02;2.03;;;;;;;;;;5125928;28;20047;-53
2022/04/23 00:58:49;;;;;;;7.93;2.60;;;;;;;;;;5126294;28;20043;-53
2022/04/23 01:01:14;;;;;;;13.43;2.28;;;;;;;;;;5126283;28;20043;-51
2022/04/23 01:03:41;;;;;;;3.10;1.73;;;;;;;;;;5126496;28;20103;-51
2022/04/23 01:06:07;;;;;;;3.97;1.40;;;;;;;;;;5126613;28;20055;-52
2022/04/23 01:08:33;;;;;;;8.30;2.20;;;;;;;;;;5126272;28;20529;-53
2022/04/23 01:10:58;;;;;;;3.60;1.88;;;;;;;;;;5126217;28;20287;-50
2022/04/23 01:13:25;;;;;;;5.40;2.05;;;;;;;;;;5126085;28;20035;-52
2022/04/23 01:16:01;;;;;;;6.35;3.15;;;;;;;;;;5125815;28;20047;-50
2022/04/23 01:18:27;;;;;;;5.57;2.25;;;;;;;;;;5125854;28;20055;-53
2022/04/23 01:20:56;;;;;;;5.72;1.52;;;;;;;;;;5125906;28;20049;-54
2022/04/23 01:23:22;;;;;;;5.05;3.10;;;;;;;;;;5125781;28;20519;-50
2022/04/23 01:25:52;;;;;;;5.35;2.13;;;;;;;;;;5126557;28;20129;-53
2022/04/23 01:28:19;;;;;;;7.72;3.35;;;;;;;;;;5125856;28;20046;-52
2022/04/23 01:30:46;;;;;;;13.82;2.72;;;;;;;;;;5125453;27;20039;-49
2022/04/23 01:33:12;;;;;;;7.47;2.53;;;;;;;;;;5125564;28;20083;-54
2022/04/23 01:35:37;;;;;;;5.13;1.98;;;;;;;;;;5125659;28;20398;-51
2022/04/23 01:38:03;;;;;;;8.20;1.85;;;;;;;;;;5125900;28;20566;-53
2022/04/23 01:40:28;;;;;;;16.80;2.65;;;;;;;;;;5124693;28;20047;-52
2022/04/23 01:42:53;;;;;;;5.47;2.67;;;;;;;;;;5125076;28;20035;-53
2022/04/23 01:45:18;;;;;;;6.20;2.22;;;;;;;;;;5125386;28;20584;-53
2022/04/23 01:47:44;;;;;;;13.38;2.55;;;;;;;;;;5123309;28;20031;-49
2022/04/23 01:50:09;;;;;;;7.55;3.00;;;;;;;;;;5124947;28;20041;-52
2022/04/23 01:52:37;;;;;;;8.45;2.67;;;;;;;;;;5124475;28;20043;-52
2022/04/23 01:55:03;;;;;;;7.20;2.67;;;;;;;;;;5125514;28;20070;-53
2022/04/23 01:57:28;;;;;;;13.25;3.55;;;;;;;;;;5125204;28;20089;-53
2022/04/23 01:59:54;;;;;;;4.32;1.90;;;;;;;;;;5126358;28;20491;-50
2022/04/23 02:02:19;;;;;;;6.00;2.78;;;;;;;;;;5126432;28;20055;-50
2022/04/23 02:04:45;;;;;;;5.90;2.72;;;;;;;;;;5126060;28;20042;-54
2022/04/23 02:07:10;;;;;;;12.40;2.47;;;;;;;;;;5125496;28;20406;-50
2022/04/23 02:09:35;;;;;;;19.85;2.80;;;;;;;;;;5125395;28;20436;-50
2022/04/23 02:12:01;;;;;;;16.67;2.70;;;;;;;;;;5125495;28;20066;-48
2022/04/23 02:14:26;;;;;;;8.02;3.40;;;;;;;;;;5125453;28;20046;-52
2022/04/23 02:16:52;;;;;;;8.80;3.38;;;;;;;;;;5125504;28;20069;-52
2022/04/23 02:19:17;;;;;;;5.97;2.67;;;;;;;;;;5124721;28;20050;-53
2022/04/23 02:21:43;;;;;;;10.55;3.97;;;;;;;;;;5124529;28;20070;-50
2022/04/23 02:24:09;;;;;;;9.07;3.38;;;;;;;;;;5124798;28;20054;-48
2022/04/23 02:26:34;;;;;;;6.57;2.72;;;;;;;;;;5124642;28;20042;-49
2022/04/23 02:28:59;;;;;;;13.77;3.10;;;;;;;;;;5125157;28;20116;-47
2022/04/23 02:31:25;;;;;;;11.55;2.03;;;;;;;;;;5124702;28;20529;-52
2022/04/23 02:33:50;;;;;;;4.60;2.05;;;;;;;;;;5125171;28;20081;-51
2022/04/23 02:36:15;;;;;;;16.38;2.38;;;;;;;;;;5124734;28;20046;-49
2022/04/23 02:38:41;;;;;;;12.25;3.35;;;;;;;;;;5124985;28;20133;-51
2022/04/23 02:41:10;;;;;;;5.28;2.08;;;;;;;;;;5124627;27;20050;-54
2022/04/23 02:43:36;;;;;;;8.55;3.22;;;;;;;;;;5127712;28;20057;-50
2022/04/23 02:46:05;;;;;;;11.48;3.03;;;;;;;;;;5127945;28;20047;-50
2022/04/23 02:48:30;;;;;;;11.10;2.67;;;;;;;;;;5126347;28;20112;-52
2022/04/23 02:50:55;;;;;;;6.32;2.72;;;;;;;;;;5129183;28;20128;-52
2022/04/23 02:53:21;;;;;;;14.00;2.72;;;;;;;;;;5128078;28;20039;-52
2022/04/23 02:55:46;;;;;;;6.88;3.00;;;;;;;;;;5128102;28;20039;-53
2022/04/23 02:58:12;;;;;;;5.43;1.75;;;;;;;;;;5128251;28;20043;-51
2022/04/23 03:00:39;;;;;;;17.05;3.38;;;;;;;;;;5128024;28;20144;-53
2022/04/23 03:03:05;;;;;;;12.50;3.33;;;;;;;;;;5128104;28;20126;-54
2022/04/23 03:05:33;;;;;;;6.65;2.63;;;;;;;;;;5127039;28;20133;-54
2022/04/23 03:08:02;;;;;;;3.22;1.85;;;;;;;;;;5127176;28;20095;-51
2022/04/23 03:10:28;;;;;;;10.40;3.97;;;;;;;;;;5128156;28;20519;-51
2022/04/23 03:12:55;;;;;;;16.10;2.72;;;;;;;;;;5127640;28;20043;-50
2022/04/23 03:15:21;;;;;;;10.10;3.60;;;;;;;;;;5128313;28;20027;-49
2022/04/23 03:17:46;;;;;;;16.25;2.42;;;;;;;;;;5128523;28;20038;-53
2022/04/23 03:20:12;;;;;;;8.95;2.78;;;;;;;;;;5128613;28;20062;-50
2022/04/23 03:22:41;;;;;;;6.93;2.10;;;;;;;;;;5127067;28;20329;-50
2022/04/23 03:25:06;;;;;;;10.82;1.70;;;;;;;;;;5128076;28;20513;-52
2022/04/23 03:27:32;;;;;;;8.98;1.83;;;;;;;;;;5128192;28;20077;-50
2022/04/23 03:30:01;;;;;;;12.27;3.60;;;;;;;;;;5127350;28;20073;-52
2022/04/23 03:32:27;;;;;;;8.05;2.35;;;;;;;;;;5127746;28;20143;-49
2022/04/23 03:34:52;;;;;;;6.82;2.40;;;;;;;;;;5128102;28;20074;-48
2022/04/23 03:37:18;;;;;;;6.18;2.33;;;;;;;;;;5127784;28;20039;-51
2022/04/23 03:39:44;;;;;;;15.15;4.20;;;;;;;;;;5128031;28;20146;-53
2022/04/23 03:42:10;;;;;;;15.13;3.67;;;;;;;;;;5127837;28;20042;-50
2022/04/23 03:44:35;;;;;;;6.85;2.33;;;;;;;;;;5127678;28;20471;-51
2022/04/23 03:47:03;;;;;;;11.50;2.95;;;;;;;;;;5126426;28;20035;-52
2022/04/23 03:49:29;;;;;;;15.07;2.63;;;;;;;;;;5102095;28;20489;-52
2022/04/23 03:51:55;;;;;;;12.18;3.20;;;;;;;;;;5127707;28;20134;-52
2022/04/23 03:54:20;;;;;;;10.38;2.90;;;;;;;;;;5126515;27;20078;-51
2022/04/23 03:56:45;;;;;;;8.93;3.72;;;;;;;;;;5125727;28;20043;-51
2022/04/23 03:59:11;;;;;;;9.52;3.33;;;;;;;;;;5127599;28;20074;-51
2022/04/23 04:01:36;;;;;;;8.45;2.75;;;;;;;;;;5127626;28;20074;-50
2022/04/23 04:04:02;;;;;;;11.13;3.20;;;;;;;;;;5126746;28;20035;-52
2022/04/23 04:06:27;;;;;;;3.75;1.65;;;;;;;;;;5127767;28;20425;-55
2022/04/23 04:08:53;;;;;;;23.58;4.93;;;;;;;;;;5126752;28;20062;-53
2022/04/23 04:11:18;;;;;;;8.73;3.47;;;;;;;;;;5127244;28;20464;-53
2022/04/23 04:13:44;;;;;;;13.65;4.25;;;;;;;;;;5127544;28;20103;-52
2022/04/23 04:16:09;;;;;;;9.93;4.25;;;;;;;;;;5127594;28;20043;-53
2022/04/23 04:18:35;;;;;;;14.70;2.70;;;;;;;;;;5127852;28;20141;-54
2022/04/23 04:21:00;;;;;;;9.32;3.28;;;;;;;;;;5127593;28;20049;-50
2022/04/23 04:23:26;;;;;;;6.50;2.40;;;;;;;;;;5126870;28;20464;-52
2022/04/23 04:25:52;;;;;;;8.68;4.00;;;;;;;;;;5127153;28;20619;-50
2022/04/23 04:28:17;;;;;;;16.60;5.05;;;;;;;;;;5127343;28;20096;-52
2022/04/23 04:33:26;;;;;;;19.38;3.17;;;;;;;;;;5125577;28;20073;-50
2022/04/23 04:35:52;;;;;;;12.85;3.83;;;;;;;;;;5125921;28;20466;-50
2022/04/23 04:38:17;;;;;;;8.02;2.40;;;;;;;;;;5127094;28;20050;-53
2022/04/23 04:40:42;;;;;;;11.38;3.88;;;;;;;;;;5127377;28;20566;-51
2022/04/23 04:43:08;;;;;;;4.13;1.85;;;;;;;;;;5124419;28;20562;-53
2022/04/23 04:45:33;;;;;;;6.72;3.28;;;;;;;;;;5125426;28;20042;-54
2022/04/23 04:47:58;;;;;;;8.15;4.50;;;;;;;;;;5126640;28;20058;-53
2022/04/23 04:50:24;;;;;;;13.40;4.05;;;;;;;;;;5126442;28;20045;-52
2022/04/23 04:52:49;;;;;;;8.85;3.00;;;;;;;;;;5126348;28;20125;-53
2022/04/23 04:55:15;;;;;;;9.57;3.42;;;;;;;;;;5123047;28;20035;-51
2022/04/23 04:57:41;;;;;;;7.22;2.70;;;;;;;;;;5126776;27;20739;-53
2022/04/23 05:00:07;;;;;;;10.02;2.85;;;;;;;;;;5126609;28;20510;-53
2022/04/23 05:02:32;;;;;;;8.73;3.47;;;;;;;;;;5126249;28;20162;-53
2022/04/23 05:04:57;;;;;;;9.80;3.03;;;;;;;;;;5102371;28;20047;-50
2022/04/23 05:07:23;;;;;;;7.03;4.22;;;;;;;;;;5126058;28;20047;-53
2022/04/23 05:09:48;;;;;;;13.30;3.35;;;;;;;;;;5125976;28;20494;-54
2022/04/23 05:12:13;;;;;;;13.32;3.00;;;;;;;;;;5125884;28;20651;-51
2022/04/23 05:14:39;;;;;;;12.30;3.38;;;;;;;;;;5126101;28;20043;-54
2022/04/23 05:17:04;;;;;;;11.82;3.92;;;;;;;;;;5126196;28;20074;-51
2022/04/23 05:19:29;;;;;;;9.05;2.13;;;;;;;;;;5125769;28;20102;-53
2022/04/23 05:21:55;;;;;;;2.90;1.55;;;;;;;;;;5125686;28;20497;-54
2022/04/23 05:24:20;;;;;;;5.65;2.83;;;;;;;;;;5126233;28;20099;-54
2022/04/23 05:26:45;;;;;;;11.30;4.57;;;;;;;;;;5126126;28;20061;-51
2022/04/23 05:29:10;;;;;;;11.27;3.40;;;;;;;;;;5126862;28;20035;-52
2022/04/23 05:31:38;;;;;;;12.23;2.95;;;;;;;;;;5126667;28;20541;-54
2022/04/23 05:34:04;;;;;;;13.35;4.18;;;;;;;;;;5126438;28;20074;-51
2022/04/23 05:36:29;;;;;;;6.15;2.63;;;;;;;;;;5126053;28;20070;-52
2022/04/23 05:38:55;;;;;;;14.32;3.70;;;;;;;;;;5126779;28;20039;-53
2022/04/23 05:41:20;;;;;;;8.15;4.97;;;;;;;;;;5126513;28;20067;-52
2022/04/23 05:43:45;;;;;;;15.48;3.40;;;;;;;;;;5126326;28;20690;-49
2022/04/23 05:46:11;;;;;;;7.97;2.75;;;;;;;;;;5126279;28;20054;-52
2022/04/23 05:48:39;;;;;;;13.52;4.43;;;;;;;;;;5126430;28;20465;-52
2022/04/23 05:51:04;;;;;;;10.85;4.95;;;;;;;;;;5126712;28;20062;-50
2022/04/23 05:53:30;;;;;;;9.15;3.78;;;;;;;;;;5126449;28;20086;-53
2022/04/23 05:55:56;;;;;;;8.32;4.35;;;;;;;;;;5124975;28;20447;-52
2022/04/23 05:58:22;;;;;;;7.63;3.08;;;;;;;;;;5125360;28;20062;-48
2022/04/23 06:00:47;;;;;;;12.18;3.05;;;;;;;;;;5118118;28;20566;-49
2022/04/23 06:03:12;;;;;;;8.38;2.72;;;;;;;;;;5122319;28;20046;-52
2022/04/23 06:05:38;;;;;;;6.57;2.67;;;;;;;;;;5123000;28;20422;-53
2022/04/23 06:08:04;;;;;;;14.32;4.18;;;;;;;;;;5123581;28;20103;-49
2022/04/23 06:10:29;;;;;;;9.40;4.35;;;;;;;;;;5122455;28;20039;-52
2022/04/23 06:12:54;;;;;;;18.40;3.40;;;;;;;;;;5122768;28;20077;-53
2022/04/23 06:15:19;;;;;;;10.70;3.35;;;;;;;;;;5122970;28;20167;-51
2022/04/23 06:17:45;;;;;;;10.85;4.80;;;;;;;;;;5122583;27;20074;-53
2022/04/23 06:20:11;;;;;;;16.98;2.33;;;;;;;;;;5123031;28;20063;-54
2022/04/23 06:22:36;;;;;;;5.63;3.58;;;;;;;;;;5122236;28;20668;-53
2022/04/23 06:25:02;;;;;;;9.98;3.33;;;;;;;;;;5121868;28;20124;-53
2022/04/23 06:27:30;;;;;;;9.30;3.28;;;;;;;;;;5122143;28;20027;-54
2022/04/23 06:29:55;;;;;;;6.72;2.30;;;;;;;;;;5119176;28;20668;-52
2022/04/23 06:32:21;;;;;;;8.57;3.22;;;;;;;;;;5099929;28;20097;-52
2022/04/23 06:34:46;;;;;;;13.77;3.15;;;;;;;;;;5102195;28;20042;-58
2022/04/23 06:37:12;;;;;;;4.90;2.90;;;;;;;;;;5121350;28;20780;-58
2022/04/23 06:39:37;;;;;;;10.65;4.03;;;;;;;;;;5121061;28;20063;-58
2022/04/23 06:42:03;;;;;;;5.05;3.00;;;;;;;;;;5121816;28;20051;-57
2022/04/23 06:44:28;;;;;;;14.10;7.63;;;;;;;;;;5121456;28;20478;-57
2022/04/23 06:46:53;;;;;;;21.20;9.48;;;;;;;;;;5121618;28;20047;-59
2022/04/23 06:49:19;;;;;;;10.57;2.97;;;;;;;;;;5121221;28;20062;-62
2022/04/23 06:51:44;;;;;;;9.40;3.08;;;;;;;;;;5121467;28;20049;-63
2022/04/23 06:54:09;;;;;;;12.52;2.95;;;;;;;;;;5124237;28;20035;-63
2022/04/23 06:56:37;;;;;;;8.07;3.40;;;;;;;;;;5124340;28;20047;-64
2022/04/23 06:59:02;;;;;;;6.38;2.67;;;;;;;;;;5125782;28;20035;-63
2022/04/23 07:01:27;;;;;;;4.90;3.13;;;;;;;;;;5111608;28;20518;-63
2022/04/23 07:03:53;;;;;;;11.20;2.22;;;;;;;;;;5121080;28;20074;-64
2022/04/23 07:06:18;;;;;;;9.80;3.53;;;;;;;;;;5118172;28;20146;-64
2022/04/23 07:08:44;;;;;;;5.88;2.47;;;;;;;;;;5121461;28;20503;-63
2022/04/23 07:11:12;;;;;;;2.42;1.60;;;;;;;;;;5121564;28;20046;-62
2022/04/23 07:13:38;;;;;;;6.43;2.40;;;;;;;;;;5123347;28;20763;-64
2022/04/23 07:16:04;;;;;;;7.55;1.92;;;;;;;;;;5122212;28;20031;-64
2022/04/23 07:18:33;;;;;;;1.33;0.82;;;;;;;;;;5123190;28;20639;-60
2022/04/23 07:20:59;;;;;;;3.80;1.42;;;;;;;;;;5120035;28;20035;-63
2022/04/23 07:26:08;;;;;;;2.40;1.00;;;;;;;;;;5122039;28;20049;-63
2022/04/23 07:28:34;;;;;;;1.17;0.70;;;;;;;;;;5124230;27;20287;-63
2022/04/23 07:31:00;;;;;;;0.93;0.40;;;;;;;;;;5126695;28;20043;-63
2022/04/23 07:38:53;;;;;;;0.63;0.38;;;;;;;;;;5126883;28;20672;-64
2022/04/23 07:41:19;;;;;;;0.77;0.57;;;;;;;;;;5126136;28;20078;-64
2022/04/23 07:43:44;;;;;;;0.75;0.38;;;;;;;;;;5127050;28;20047;-64
2022/04/23 07:46:12;;;;;;;1.25;0.65;;;;;;;;;;5127584;28;20156;-63
2022/04/23 07:48:37;;;;;;;2.25;0.93;;;;;;;;;;5127357;28;20054;-64
2022/04/23 07:51:03;;;;;;;0.88;0.40;;;;;;;;;;5126993;28;20121;-62
2022/04/23 07:53:28;;;;;;;2.35;0.60;;;;;;;;;;5127417;28;20035;-64
2022/04/23 07:55:54;;;;;;;3.05;0.98;;;;;;;;;;5126456;28;20070;-64
2022/04/23 07:58:19;;;;;;;4.13;0.57;;;;;;;;;;5126757;28;20042;-64
2022/04/23 08:00:45;;;;;;;0.43;0.20;;;;;;;;;;5125816;28;20039;-64
2022/04/23 08:03:10;;;;;;;0.82;0.50;;;;;;;;;;5126553;28;20045;-63
2022/04/23 08:05:35;;;;;;;6.60;0.40;;;;;;;;;;5125436;28;20050;-63
2022/04/23 08:08:01;;;;;;;0.20;0.13;;;;;;;;;;5125894;28;20035;-63
2022/04/23 08:10:27;;;;;;;3.83;0.75;;;;;;;;;;5127000;28;20088;-63
2022/04/23 08:12:54;;;;;;;0.80;0.63;;;;;;;;;;5127529;28;20123;-64
2022/04/23 08:15:19;;;;;;;0.82;0.10;;;;;;;;;;5124472;28;20102;-63
2022/04/23 08:17:45;;;;;;;0.75;0.38;;;;;;;;;;5106489;28;20039;-63
2022/04/23 08:20:11;;;;;;;1.55;0.47;;;;;;;;;;5126451;28;20133;-63
2022/04/23 08:22:36;;;;;;;2.22;0.22;;;;;;;;;;5125433;28;20099;-62
2022/04/23 08:25:01;;;;;;;10.65;0.40;;;;;;;;;;5127005;28;20050;-62
2022/04/23 08:27:27;;;;;;;6.03;0.40;;;;;;;;;;5125699;28;20050;-63
2022/04/23 08:32:36;;;;;;;0.35;0.32;;;;;;;;;;5124576;28;20238;-62
2022/04/23 08:35:04;;;;;;;3.35;1.17;;;;;;;;;;5126306;28;20125;-63
2022/04/23 08:37:29;;;;;;;0.17;0.17;;;;;;;;;;5124079;28;20039;-64
2022/04/23 08:39:55;;;;;;;0.73;0.45;;;;;;;;;;5124743;27;20136;-63
2022/04/23 08:42:20;;;;;;;0.88;0.63;;;;;;;;;;5126852;28;20051;-63
2022/04/23 08:44:45;;;;;;;0.13;0.10;;;;;;;;;;5126389;28;20058;-63
2022/04/23 08:47:11;;;;;;;1.35;0.30;;;;;;;;;;5125769;28;20509;-63
2022/04/23 08:49:40;;;;;;;1.33;0.30;;;;;;;;;;5125753;28;20138;-64
2022/04/23 08:52:05;;;;;;;2.17;0.75;;;;;;;;;;5127040;28;20080;-63
2022/04/23 08:54:31;;;;;;;0.82;0.35;;;;;;;;;;5126652;28;20612;-64
2022/04/23 08:56:56;;;;;;;1.70;0.90;;;;;;;;;;5126348;28;20043;-64
2022/04/23 08:59:22;;;;;;;1.35;0.20;;;;;;;;;;5126329;28;20079;-64
2022/04/23 09:01:47;;;;;;;0.93;0.73;;;;;;;;;;5126230;28;20075;-64
2022/04/23 09:04:13;;;;;;;1.45;0.10;;;;;;;;;;5126251;28;20055;-62
2022/04/23 09:06:39;;;;;;;3.65;0.25;;;;;;;;;;5126026;28;20038;-63
2022/04/23 09:09:05;;;;;;;0.22;0.20;;;;;;;;;;5125926;28;20054;-63
2022/04/23 09:11:37;;;;;;;4.55;0.43;;;;;;;;;;5126036;28;20122;-63
2022/04/23 09:14:06;;;;;;;0.40;0.30;;;;;;;;;;5124944;28;20114;-64
2022/04/23 09:25:02;;;;;;;0.08;0.08;;;;;;;;;;5125430;28;20054;-63
2022/04/23 09:27:30;;;;;;;0.28;0.15;;;;;;;;;;5126195;28;20043;-63
2022/04/23 09:29:59;;;;;;;1.58;0.30;;;;;;;;;;5126247;28;20113;-63
2022/04/23 09:32:27;;;;;;;3.92;1.48;;;;;;;;;;5125146;28;20125;-64
2022/04/23 09:35:04;;;;;;;3.35;0.20;;;;;;;;;;5125876;28;20043;-62
2022/04/23 09:40:18;;;;;;;2.15;0.70;;;;;;;;;;5124524;28;20425;-64
2022/04/23 09:42:53;;;;;;;1.52;0.45;;;;;;;;;;5125991;28;20049;-64
2022/04/23 09:45:19;;;;;;;0.57;0.20;;;;;;;;;;5122547;28;20057;-63
2022/04/23 09:47:45;;;;;;;0.43;0.10;;;;;;;;;;5124683;28;20209;-63
2022/04/23 09:50:13;;;;;;;0.45;0.05;;;;;;;;;;5125343;28;20142;-64
2022/04/23 09:52:39;;;;;;;0.77;0.38;;;;;;;;;;5125332;27;20158;-64
2022/04/23 09:55:06;;;;;;;1.80;0.50;;;;;;;;;;5126075;28;20045;-65
2022/04/23 09:57:31;;;;;;;0.98;0.30;;;;;;;;;;5125771;28;20046;-64
2022/04/23 09:59:57;;;;;;;1.85;0.57;;;;;;;;;;5125568;28;20042;-64
2022/04/23 10:02:23;;;;;;;5.80;0.80;;;;;;;;;;5123956;28;20137;-63
2022/04/23 10:04:49;;;;;;;1.67;0.45;;;;;;;;;;5124788;28;20047;-65
2022/04/23 10:07:18;;;;;;;2.35;0.82;;;;;;;;;;5124133;28;20509;-63
2022/04/23 10:09:45;;;;;;;2.13;0.63;;;;;;;;;;5123254;28;20142;-63
2022/04/23 10:12:13;;;;;;;1.52;0.68;;;;;;;;;;5124427;28;20047;-63
2022/04/23 10:14:42;;;;;;;2.03;0.55;;;;;;;;;;5123404;28;20043;-63
2022/04/23 10:17:09;;;;;;;5.07;1.00;;;;;;;;;;5124439;28;20039;-63
2022/04/23 10:19:35;;;;;;;6.70;0.98;;;;;;;;;;5124812;28;20057;-63
2022/04/23 10:22:21;;;;;;;2.92;0.85;;;;;;;;;;5125094;28;20039;-63
2022/04/23 10:24:47;;;;;;;3.00;0.75;;;;;;;;;;5123240;28;20051;-63
2022/04/23 10:27:14;;;;;;;2.50;1.15;;;;;;;;;;5104581;28;20574;-63
2022/04/23 10:29:39;;;;;;;2.45;0.60;;;;;;;;;;5124072;28;20441;-62
2022/04/23 10:32:10;;;;;;;1.23;0.70;;;;;;;;;;5123589;28;20043;-62
2022/04/23 10:34:36;;;;;;;0.45;0.30;;;;;;;;;;5122609;28;20051;-62
2022/04/23 10:37:19;;;;;;;3.00;0.40;;;;;;;;;;5124507;28;20050;-62
2022/04/23 10:39:51;;;;;;;4.28;1.20;;;;;;;;;;5122021;28;20647;-62
2022/04/23 10:42:17;;;;;;;;;;;;;;;;;;5123965;28;20035;-62
2022/04/23 10:44:43;;;;;;;5.40;1.92;;;;;;;;;;5123092;28;19915;-62
2022/04/23 10:47:13;;;;;;;1.85;0.77;;;;;;;;;;5123987;28;20043;-63
2022/04/23 10:49:38;;;;;;;2.42;0.88;;;;;;;;;;5124288;28;20070;-63
2022/04/23 10:52:03;;;;;;;3.13;0.70;;;;;;;;;;5124357;28;20510;-63
2022/04/23 10:54:38;;;;;;;1.40;0.77;;;;;;;;;;5123934;28;20039;-63
2022/04/23 10:57:06;;;;;;;5.20;0.93;;;;;;;;;;5124147;28;20039;-64
2022/04/23 10:59:32;;;;;;;2.35;1.20;;;;;;;;;;5123911;28;20050;-63
2022/04/23 11:02:02;;;;;;;4.80;0.90;;;;;;;;;;5123684;27;20078;-64
2022/04/23 11:04:27;;;;;;;2.97;0.65;;;;;;;;;;5126173;28;20120;-63
2022/04/23 11:12:22;;;;;;;1.73;0.55;;;;;;;;;;5127754;28;20625;-66
2022/04/23 11:14:51;;;;;;;1.77;0.80;;;;;;;;;;5126698;28;20039;-65
2022/04/23 11:17:21;;;;;;;6.68;1.25;;;;;;;;;;5126412;28;20043;-65
2022/04/23 11:19:51;;;;;;;1.77;0.88;;;;;;;;;;5126657;28;20047;-65
2022/04/23 11:22:16;;;;;;;4.25;1.20;;;;;;;;;;5125558;28;20579;-65
2022/04/23 11:24:43;;;;;;;5.70;0.70;;;;;;;;;;5127198;28;20039;-66
2022/04/23 11:27:10;;;;;;;2.22;0.50;;;;;;;;;;5127587;28;20501;-65
2022/04/23 11:29:37;;;;;;;7.30;1.27;;;;;;;;;;5127228;28;20047;-65
2022/04/23 11:32:03;;;;;;;1.85;1.02;;;;;;;;;;5126451;28;20054;-64
2022/04/23 11:34:28;;;;;;;4.70;0.88;;;;;;;;;;5127227;28;20031;-64
2022/04/23 11:36:53;;;;;;;2.13;0.68;;;;;;;;;;5126952;28;20082;-64
2022/04/23 11:39:26;;;;;;;5.93;0.77;;;;;;;;;;5126736;28;20497;-65
2022/04/23 11:41:51;;;;;;;2.15;1.25;;;;;;;;;;5127270;28;20039;-65
2022/04/23 11:47:09;;;;;;;7.90;1.05;;;;;;;;;;5127361;28;20189;-65
2022/04/23 11:49:35;;;;;;;0.60;0.55;;;;;;;;;;5126988;28;20055;-65
2022/04/23 11:52:02;;;;;;;14.00;1.67;;;;;;;;;;5126757;28;20024;-65
2022/04/23 11:54:31;;;;;;;1.40;0.50;;;;;;;;;;5128649;28;20035;-65
2022/04/23 11:56:56;;;;;;;1.85;0.75;;;;;;;;;;5127652;28;20130;-64
2022/04/23 11:59:21;;;;;;;1.08;0.77;;;;;;;;;;5127934;28;20202;-65
2022/04/23 12:01:47;;;;;;;2.42;0.38;;;;;;;;;;5127840;28;20103;-65
2022/04/23 12:04:13;;;;;;;3.00;1.65;;;;;;;;;;5127812;28;20042;-65
2022/04/23 12:06:45;;;;;;;1.92;0.57;;;;;;;;;;5127306;28;20051;-65
2022/04/23 12:09:11;;;;;;;3.63;1.50;;;;;;;;;;5126480;28;20146;-64
2022/04/23 12:11:37;;;;;;;1.70;0.88;;;;;;;;;;5127310;28;20170;-64
2022/04/23 12:14:03;;;;;;;4.22;0.60;;;;;;;;;;5105018;28;20462;-64
2022/04/23 12:16:31;;;;;;;8.48;1.02;;;;;;;;;;5127655;28;20050;-64
2022/04/23 12:19:05;;;;;;;6.68;1.20;;;;;;;;;;5127406;28;20055;-64
2022/04/23 12:21:31;;;;;;;3.72;1.15;;;;;;;;;;5126906;28;20129;-64
2022/04/23 12:23:56;;;;;;;1.08;0.65;;;;;;;;;;5126226;28;20176;-65
2022/04/23 12:26:23;;;;;;;2.17;0.75;;;;;;;;;;5127364;28;20054;-65
2022/04/23 12:42:22;;;;;;;2.15;0.90;;;;;;;;;;5126993;28;20046;-65
2022/04/23 12:44:49;;;;;;;2.33;1.13;;;;;;;;;;5126367;28;20085;-65
2022/04/23 12:47:18;;;;;;;2.22;0.70;;;;;;;;;;5127233;28;20054;-66
2022/04/23 12:49:51;;;;;;;13.40;3.42;;;;;;;;;;5119106;28;20050;-65
2022/04/23 12:52:21;;;;;;;3.30;0.80;;;;;;;;;;5121893;28;20067;-66
2022/04/23 12:55:05;;;;;;;5.90;0.68;;;;;;;;;;5123987;28;20061;-65
2022/04/23 12:57:31;;;;;;;1.50;0.85;;;;;;;;;;5122049;28;20055;-65
2022/04/23 12:59:56;;;;;;;1.88;0.60;;;;;;;;;;5123699;28;20670;-65
2022/04/23 13:02:21;;;;;;;3.00;1.08;;;;;;;;;;5124324;28;20042;-65
2022/04/23 13:04:46;;;;;;;3.38;0.70;;;;;;;;;;5123668;28;20054;-65
2022/04/23 13:09:55;;;;;;;2.45;1.00;;;;;;;;;;5122336;28;20053;-65
2022/04/23 13:12:21;;;;;;;3.42;0.68;;;;;;;;;;5123919;28;20039;-65
2022/04/23 13:14:46;;;;;;;1.88;1.35;;;;;;;;;;5123226;28;20586;-65
2022/04/23 13:17:12;;;;;;;1.65;1.00;;;;;;;;;;5124662;28;20540;-65
2022/04/23 13:19:37;;;;;;;1.98;0.60;;;;;;;;;;5123581;28;20174;-65
2022/04/23 13:22:02;;;;;;;1.60;0.43;;;;;;;;;;5122871;28;20439;-65
2022/04/23 13:24:28;;;;;;;5.05;1.40;;;;;;;;;;5124048;28;20042;-65
2022/04/23 13:26:53;;;;;;;5.60;1.90;;;;;;;;;;5123116;27;20502;-65
2022/04/23 13:29:18;;;;;;;4.88;0.65;;;;;;;;;;5123503;28;20047;-65
2022/04/23 13:31:44;;;;;;;2.05;0.80;;;;;;;;;;5098405;28;20047;-65
2022/04/23 13:34:09;;;;;;;0.55;0.25;;;;;;;;;;5122693;28;20043;-65
2022/04/23 13:36:34;;;;;;;7.05;3.83;;;;;;;;;;5123435;28;20062;-65
2022/04/23 13:39:00;;;;;;;8.63;1.55;;;;;;;;;;5123987;28;20082;-65
2022/04/23 13:41:25;;;;;;;3.72;1.23;;;;;;;;;;5124794;28;20085;-66
2022/04/23 13:43:51;;;;;;;0.88;0.60;;;;;;;;;;5102155;28;20040;-65
2022/04/23 13:46:16;;;;;;;5.13;0.73;;;;;;;;;;5125206;28;20565;-65
2022/04/23 13:48:42;;;;;;;0.68;0.28;;;;;;;;;;5124384;28;20057;-65
2022/04/23 13:51:07;;;;;;;0.63;0.35;;;;;;;;;;5125041;28;20430;-65
2022/04/23 13:53:33;;;;;;;3.03;0.65;;;;;;;;;;5124132;28;20406;-65
2022/04/23 13:55:58;;;;;;;5.95;1.25;;;;;;;;;;5125277;28;20071;-65
2022/04/23 13:58:24;;;;;;;5.95;0.98;;;;;;;;;;5123851;28;20122;-64
2022/04/23 14:00:49;;;;;;;1.98;1.30;;;;;;;;;;5123743;28;20048;-65
2022/04/23 14:11:26;;;;;;;2.13;0.90;;;;;;;;;;5123518;28;20545;-65
2022/04/23 14:13:52;;;;;;;4.70;1.90;;;;;;;;;;5123587;28;20114;-65
2022/04/23 14:16:18;;;;;;;4.75;1.80;;;;;;;;;;5123505;28;20046;-65
2022/04/23 14:18:43;;;;;;;1.75;0.90;;;;;;;;;;5123575;28;20502;-65
2022/04/23 14:21:09;;;;;;;4.07;1.13;;;;;;;;;;5123160;28;20070;-65
2022/04/23 14:23:34;;;;;;;6.60;1.70;;;;;;;;;;5123854;28;20074;-65
2022/04/23 14:26:00;;;;;;;5.35;2.08;;;;;;;;;;5122763;28;20086;-65
2022/04/23 14:28:25;;;;;;;3.55;1.00;;;;;;;;;;5123853;28;20443;-65
2022/04/23 14:30:51;;;;;;;3.63;0.98;;;;;;;;;;5123403;28;20454;-65
2022/04/23 14:33:16;;;;;;;0.95;0.63;;;;;;;;;;5120966;28;20036;-65
2022/04/23 14:35:42;;;;;;;2.85;0.50;;;;;;;;;;5123091;28;20100;-65
2022/04/23 14:38:07;;;;;;;6.13;2.22;;;;;;;;;;5126120;27;20084;-65
2022/04/23 14:40:34;;;;;;;1.85;1.42;;;;;;;;;;5126211;28;20422;-65
2022/04/23 14:43:01;;;;;;;6.32;2.30;;;;;;;;;;5126262;27;20053;-65
2022/04/23 14:45:28;;;;;;;4.93;1.85;;;;;;;;;;5125843;28;20142;-65
2022/04/23 14:47:54;;;;;;;2.55;1.33;;;;;;;;;;5126780;28;20045;-65
2022/04/23 14:50:19;;;;;;;5.80;1.50;;;;;;;;;;5127348;28;20050;-65
2022/04/23 14:58:39;;;;;;;5.75;1.58;;;;;;;;;;5108862;28;20070;-67
2022/04/23 15:01:04;;;;;;;9.40;0.82;;;;;;;;;;5124770;27;20494;-66
2022/04/23 15:03:29;;;;;;;3.05;1.27;;;;;;;;;;5125371;27;20031;-67
2022/04/23 15:05:55;;;;;;;2.15;1.00;;;;;;;;;;5124637;28;20035;-66
2022/04/23 15:08:20;;;;;;;3.10;1.27;;;;;;;;;;5125140;27;20043;-67
2022/04/23 15:10:45;;;;;;;2.63;0.82;;;;;;;;;;5125250;27;20050;-66
2022/04/23 15:13:11;;;;;;;6.30;1.42;;;;;;;;;;5126265;28;20039;-67
2022/04/23 15:15:37;;;;;;;6.78;1.48;;;;;;;;;;5124553;28;20046;-66
2022/04/23 15:18:03;;;;;;;5.40;0.98;;;;;;;;;;5124902;28;20055;-66
2022/04/23 15:20:28;;;;;;;15.13;1.40;;;;;;;;;;5125022;28;20123;-65
2022/04/23 15:22:54;;;;;;;6.05;2.25;;;;;;;;;;5126309;27;20055;-65
2022/04/23 15:25:19;;;;;;;5.75;3.00;;;;;;;;;;5125647;28;20043;-65
2022/04/23 15:27:45;;;;;;;5.72;1.60;;;;;;;;;;5125660;28;20095;-65
2022/04/23 15:30:10;;;;;;;9.73;1.75;;;;;;;;;;5125751;28;20054;-65
2022/04/23 15:32:36;;;;;;;1.98;1.23;;;;;;;;;;5124237;28;20078;-65
2022/04/23 15:35:01;;;;;;;3.50;1.42;;;;;;;;;;5123765;28;20737;-64
2022/04/23 15:37:26;;;;;;;5.43;1.77;;;;;;;;;;5124672;28;20039;-64